createdAt,value
2018-07-05T00:01:17.041Z,23.71
2018-07-05T00:03:43.011Z,23.65
2018-07-05T00:06:08.987Z,23.55
2018-07-05T00:08:34.950Z,23.55
2018-07-05T00:11:00.937Z,23.58
2018-07-05T00:13:26.895Z,23.63
2018-07-05T00:15:52.938Z,23.64
2018-07-05T00:18:18.881Z,23.52
2018-07-05T00:20:44.863Z,23.63
2018-07-05T00:23:10.797Z,23.65
2018-07-05T00:25:36.740Z,23.75
2018-07-05T00:28:02.665Z,23.86
2018-07-05T00:30:28.619Z,23.95
2018-07-05T00:32:54.595Z,23.82
2018-07-05T00:35:20.557Z,23.69
2018-07-05T00:37:46.501Z,23.58
2018-07-05T00:40:12.459Z,23.70
2018-07-05T00:42:38.421Z,23.61
2018-07-05T00:45:04.368Z,23.62
2018-07-05T00:47:30.309Z,23.53
2018-07-05T00:49:56.260Z,23.63
2018-07-05T00:52:22.239Z,23.57
2018-07-05T00:54:48.191Z,23.40
2018-07-05T00:57:14.146Z,23.54
2018-07-05T00:59:40.111Z,23.63
2018-07-05T01:02:06.072Z,23.70
2018-07-05T01:04:32.046Z,23.66
2018-07-05T01:06:58.051Z,23.60
2018-07-05T01:09:23.999Z,23.44
2018-07-05T01:11:49.948Z,23.42
2018-07-05T01:14:15.905Z,23.58
2018-07-05T01:16:41.883Z,23.26
2018-07-05T01:19:07.837Z,23.45
2018-07-05T01:21:33.800Z,23.36
2018-07-05T01:23:59.777Z,23.31
2018-07-05T01:26:25.737Z,23.26
2018-07-05T01:28:51.682Z,23.22
2018-07-05T01:31:17.655Z,23.01
2018-07-05T01:33:43.584Z,23.14
2018-07-05T01:36:09.559Z,23.08
2018-07-05T01:38:35.513Z,23.13
2018-07-05T01:41:01.449Z,23.06
2018-07-05T01:43:27.394Z,23.08
2018-07-05T01:45:53.343Z,23.20
2018-07-05T01:48:19.287Z,22.97
2018-07-05T01:50:45.225Z,22.99
2018-07-05T01:53:11.161Z,22.99
2018-07-05T01:55:37.112Z,22.93
2018-07-05T01:58:03.095Z,22.76
2018-07-05T02:00:29.032Z,23.02
2018-07-05T02:02:54.974Z,22.93
2018-07-05T02:05:20.923Z,23.00
2018-07-05T02:07:46.873Z,22.68
2018-07-05T02:10:12.841Z,22.68
2018-07-05T02:12:38.782Z,22.73
2018-07-05T02:15:04.725Z,22.72
2018-07-05T02:17:30.660Z,22.93
2018-07-05T02:19:56.676Z,22.76
2018-07-05T02:22:22.709Z,22.60
2018-07-05T02:24:48.673Z,22.65
2018-07-05T02:27:14.633Z,22.42
2018-07-05T02:29:40.585Z,22.33
2018-07-05T02:32:06.516Z,22.53
2018-07-05T02:34:32.468Z,22.67
2018-07-05T02:36:58.437Z,22.79
2018-07-05T02:39:24.401Z,22.79
2018-07-05T02:41:50.361Z,22.51
2018-07-05T02:44:16.357Z,22.61
2018-07-05T02:46:42.306Z,22.74
2018-07-05T02:49:08.254Z,22.35
2018-07-05T02:51:34.188Z,22.73
2018-07-05T02:54:00.123Z,22.47
2018-07-05T02:56:26.077Z,22.48
2018-07-05T02:58:52.025Z,22.43
2018-07-05T03:01:17.964Z,22.49
2018-07-05T03:03:43.940Z,22.40
2018-07-05T03:06:09.899Z,22.36
2018-07-05T03:08:35.865Z,22.54
2018-07-05T03:11:01.809Z,22.66
2018-07-05T03:13:27.745Z,22.70
2018-07-05T03:15:53.719Z,22.62
2018-07-05T03:18:19.670Z,22.52
2018-07-05T03:20:45.611Z,22.47
2018-07-05T03:23:11.582Z,22.31
2018-07-05T03:25:37.541Z,22.58
2018-07-05T03:28:03.514Z,22.61
2018-07-05T03:30:29.489Z,22.63
2018-07-05T03:32:55.442Z,22.47
2018-07-05T03:35:21.396Z,22.57
2018-07-05T03:37:47.371Z,22.55
2018-07-05T03:40:13.349Z,22.62
2018-07-05T03:42:39.399Z,22.25
2018-07-05T03:45:05.363Z,22.00
2018-07-05T03:47:31.364Z,22.23
2018-07-05T03:49:57.318Z,22.09
2018-07-05T03:52:23.596Z,22.29
2018-07-05T03:54:49.549Z,22.39
2018-07-05T03:57:15.528Z,22.37
2018-07-05T03:59:41.477Z,22.28
2018-07-05T04:02:07.424Z,22.19
2018-07-05T04:04:33.384Z,22.32
2018-07-05T04:06:59.328Z,22.23
2018-07-05T04:09:25.579Z,22.42
2018-07-05T04:11:51.572Z,22.29
2018-07-05T04:14:17.526Z,22.31
2018-07-05T04:16:43.482Z,22.41
2018-07-05T04:19:09.565Z,22.50
2018-07-05T04:21:35.516Z,22.54
2018-07-05T04:24:01.553Z,22.35
2018-07-05T04:26:27.531Z,22.55
2018-07-05T04:28:53.470Z,22.65
2018-07-05T04:31:19.433Z,22.61
2018-07-05T04:33:45.393Z,22.56
2018-07-05T04:36:11.592Z,22.37
2018-07-05T04:38:37.595Z,22.47
2018-07-05T04:41:03.528Z,22.61
2018-07-05T04:43:29.522Z,22.89
2018-07-05T04:45:55.462Z,23.34
2018-07-05T04:48:21.409Z,23.43
2018-07-05T04:50:47.384Z,23.30
2018-07-05T04:53:13.330Z,23.27
2018-07-05T04:55:39.276Z,23.26
2018-07-05T04:58:05.218Z,23.64
2018-07-05T05:00:31.174Z,23.94
2018-07-05T05:02:57.147Z,23.95
2018-07-05T05:05:23.109Z,23.90
2018-07-05T05:07:49.162Z,24.28
2018-07-05T05:10:15.129Z,24.62
2018-07-05T05:12:41.084Z,24.69
2018-07-05T05:15:07.040Z,24.86
2018-07-05T05:17:33.107Z,25.00
2018-07-05T05:19:59.108Z,25.35
2018-07-05T05:22:25.047Z,25.36
2018-07-05T05:24:51.045Z,25.05
2018-07-05T05:27:17.000Z,25.13
2018-07-05T05:29:42.979Z,25.53
2018-07-05T05:32:08.981Z,25.51
2018-07-05T05:34:34.985Z,24.91
2018-07-05T05:37:00.916Z,25.05
2018-07-05T05:39:26.860Z,25.25
2018-07-05T05:41:52.840Z,25.19
2018-07-05T05:44:18.789Z,25.47
2018-07-05T05:46:44.753Z,25.25
2018-07-05T05:49:10.710Z,25.20
2018-07-05T05:51:36.655Z,25.17
2018-07-05T05:54:02.652Z,25.08
2018-07-05T05:56:28.602Z,24.84
2018-07-05T05:58:54.542Z,24.80
2018-07-05T06:01:20.494Z,24.80
2018-07-05T06:03:46.448Z,25.15
2018-07-05T06:06:12.420Z,24.62
2018-07-05T06:08:38.358Z,24.50
2018-07-05T06:11:04.291Z,24.65
2018-07-05T06:13:30.262Z,24.76
2018-07-05T06:15:56.218Z,24.92
2018-07-05T06:18:22.192Z,24.48
2018-07-05T06:20:48.168Z,24.70
2018-07-05T06:23:14.096Z,24.79
2018-07-05T06:25:40.130Z,24.70
2018-07-05T06:28:06.044Z,24.79
2018-07-05T06:30:32.010Z,24.91
2018-07-05T06:32:57.948Z,24.93
2018-07-05T06:35:23.923Z,24.88
2018-07-05T06:37:49.872Z,24.96
2018-07-05T06:40:15.843Z,24.72
2018-07-05T06:42:41.804Z,24.67
2018-07-05T06:45:07.809Z,24.74
2018-07-05T06:47:33.823Z,24.68
2018-07-05T06:52:25.496Z,24.92
2018-07-05T06:57:17.381Z,24.93
2018-07-05T06:59:43.319Z,25.15
2018-07-05T07:02:09.288Z,25.13
2018-07-05T07:04:35.233Z,25.19
2018-07-05T07:07:01.224Z,24.91
2018-07-05T07:09:27.179Z,25.11
2018-07-05T07:11:53.135Z,25.29
2018-07-05T07:14:19.081Z,25.17
2018-07-05T07:16:45.079Z,26.78
2018-07-05T07:19:11.033Z,27.32
2018-07-05T07:21:36.993Z,26.84
2018-07-05T07:24:02.949Z,26.96
2018-07-05T07:26:28.933Z,27.84
2018-07-05T07:28:54.891Z,28.42
2018-07-05T07:31:20.893Z,28.77
2018-07-05T07:33:46.856Z,28.86
2018-07-05T07:36:12.789Z,29.01
2018-07-05T07:38:38.820Z,29.03
2018-07-05T07:41:04.801Z,29.06
2018-07-05T07:43:30.784Z,28.56
2018-07-05T07:45:57.477Z,26.24
2018-07-05T07:48:23.458Z,28.44
2018-07-05T07:50:49.402Z,28.32
2018-07-05T07:53:15.373Z,28.75
2018-07-05T07:55:41.321Z,28.84
2018-07-05T07:58:07.312Z,28.75
2018-07-05T08:00:33.249Z,28.62
2018-07-05T08:02:59.204Z,28.74
2018-07-05T08:05:25.142Z,28.49
2018-07-05T08:07:51.085Z,28.12
2018-07-05T08:10:17.030Z,27.88
2018-07-05T08:12:43.003Z,27.75
2018-07-05T08:15:08.965Z,28.04
2018-07-05T08:17:34.916Z,27.96
2018-07-05T08:20:00.896Z,27.97
2018-07-05T08:22:26.907Z,28.06
2018-07-05T08:24:52.841Z,27.94
2018-07-05T08:27:18.805Z,27.97
2018-07-05T08:29:44.780Z,27.95
2018-07-05T08:32:10.743Z,27.63
2018-07-05T08:34:36.704Z,27.59
2018-07-05T08:37:02.676Z,27.43
2018-07-05T08:39:28.657Z,27.46
2018-07-05T08:41:54.603Z,27.53
2018-07-05T08:44:20.547Z,27.54
2018-07-05T08:46:46.533Z,27.53
2018-07-05T08:49:12.482Z,27.44
2018-07-05T08:51:38.506Z,27.46
2018-07-05T08:54:04.490Z,27.25
2018-07-05T08:56:30.460Z,27.12
2018-07-05T08:58:57.222Z,26.64
2018-07-05T09:01:23.273Z,27.00
2018-07-05T09:03:49.233Z,27.13
2018-07-05T09:06:15.197Z,27.16
2018-07-05T09:08:41.177Z,27.19
2018-07-05T09:11:07.158Z,27.08
2018-07-05T09:13:33.148Z,27.07
2018-07-05T09:15:59.130Z,26.98
2018-07-05T09:18:25.171Z,27.06
2018-07-05T09:20:51.116Z,27.05
2018-07-05T09:23:17.188Z,27.02
2018-07-05T09:25:46.998Z,27.00
2018-07-05T09:28:13.083Z,26.87
2018-07-05T09:30:39.704Z,26.85
2018-07-05T09:33:05.735Z,26.88
2018-07-05T09:35:31.704Z,26.84
2018-07-05T09:37:57.686Z,26.89
2018-07-05T09:40:23.632Z,27.00
2018-07-05T09:42:49.581Z,27.10
2018-07-05T09:45:15.645Z,26.99
2018-07-05T09:47:41.687Z,27.03
2018-07-05T09:50:07.656Z,27.05
2018-07-05T09:52:33.796Z,27.05
2018-07-05T09:54:59.738Z,27.05
2018-07-05T09:57:25.757Z,26.58
2018-07-05T09:59:52.619Z,26.09
2018-07-05T10:02:18.652Z,25.98
2018-07-05T10:04:44.618Z,25.95
2018-07-05T10:07:11.426Z,25.87
2018-07-05T10:09:37.456Z,25.76
2018-07-05T10:12:03.504Z,25.93
2018-07-05T10:14:30.229Z,25.89
2018-07-05T10:16:56.239Z,25.97
2018-07-05T10:19:22.268Z,25.82
2018-07-05T10:21:48.353Z,25.97
2018-07-05T10:24:14.402Z,25.87
2018-07-05T10:26:40.427Z,25.90
2018-07-05T10:29:07.431Z,25.89
2018-07-05T10:31:33.633Z,25.90
2018-07-05T10:33:59.766Z,25.88
2018-07-05T10:36:27.365Z,25.91
2018-07-05T10:38:53.475Z,25.90
2018-07-05T10:41:20.331Z,26.00
2018-07-05T10:43:46.344Z,25.98
2018-07-05T10:46:12.358Z,25.99
2018-07-05T10:48:38.399Z,26.00
2018-07-05T10:51:05.065Z,25.90
2018-07-05T10:53:31.228Z,25.83
2018-07-05T10:55:57.301Z,25.80
2018-07-05T10:58:23.387Z,25.88
2018-07-05T11:00:49.408Z,25.88
2018-07-05T11:03:15.403Z,26.02
2018-07-05T11:05:41.457Z,25.92
2018-07-05T11:08:07.515Z,25.94
2018-07-05T11:10:33.583Z,25.92
2018-07-05T11:12:59.567Z,25.96
2018-07-05T11:15:25.624Z,25.94
2018-07-05T11:17:51.736Z,25.86
2018-07-05T11:20:17.700Z,25.87
2018-07-05T11:22:43.659Z,26.06
2018-07-05T11:25:09.630Z,25.83
2018-07-05T11:27:35.726Z,25.93
2018-07-05T11:30:01.688Z,25.85
2018-07-05T11:32:27.697Z,25.85
2018-07-05T11:34:53.670Z,25.84
2018-07-05T11:37:19.655Z,25.87
2018-07-05T11:39:45.649Z,25.78
2018-07-05T11:42:12.540Z,25.83
2018-07-05T11:44:38.584Z,25.91
2018-07-05T11:47:04.576Z,25.90
2018-07-05T11:49:30.588Z,26.03
2018-07-05T11:51:56.612Z,25.93
2018-07-05T11:54:22.607Z,26.01
2018-07-05T11:56:48.583Z,25.94
2018-07-05T11:59:14.638Z,25.77
2018-07-05T12:01:40.648Z,25.93
2018-07-05T12:04:06.670Z,25.96
2018-07-05T12:06:32.667Z,26.00
2018-07-05T12:08:58.630Z,25.93
2018-07-05T12:11:24.578Z,25.97
2018-07-05T12:13:50.550Z,25.96
2018-07-05T12:16:16.512Z,26.02
2018-07-05T12:18:42.469Z,25.79
2018-07-05T12:21:08.469Z,25.87
2018-07-05T12:23:34.627Z,25.80
2018-07-05T12:26:00.671Z,25.79
2018-07-05T12:28:26.746Z,25.89
2018-07-05T12:30:52.742Z,25.86
2018-07-05T12:33:18.705Z,26.01
2018-07-05T12:35:44.727Z,25.99
2018-07-05T12:38:10.806Z,25.86
2018-07-05T12:40:36.755Z,25.82
2018-07-05T12:43:02.717Z,25.82
2018-07-05T12:45:28.713Z,25.84
2018-07-05T12:47:54.696Z,25.86
2018-07-05T12:50:20.700Z,25.88
2018-07-05T12:52:46.715Z,25.84
2018-07-05T12:55:12.686Z,25.96
2018-07-05T12:57:38.718Z,25.89
2018-07-05T13:00:04.645Z,25.64
2018-07-05T13:02:30.603Z,25.83
2018-07-05T13:04:56.553Z,25.90
2018-07-05T13:07:22.513Z,25.84
2018-07-05T13:09:48.510Z,25.68
2018-07-05T13:12:14.460Z,25.57
2018-07-05T13:14:40.423Z,25.69
2018-07-05T13:17:06.388Z,25.84
2018-07-05T13:19:32.371Z,25.88
2018-07-05T13:21:58.316Z,25.76
2018-07-05T13:24:24.270Z,25.78
2018-07-05T13:26:50.224Z,25.61
2018-07-05T13:29:16.182Z,25.51
2018-07-05T13:31:42.140Z,25.63
2018-07-05T13:34:08.091Z,25.71
2018-07-05T13:36:34.090Z,25.64
2018-07-05T13:39:00.075Z,25.77
2018-07-05T13:41:26.032Z,25.82
2018-07-05T13:43:51.988Z,25.83
2018-07-05T13:46:17.993Z,25.68
2018-07-05T13:48:43.937Z,25.67
2018-07-05T13:51:09.950Z,25.91
2018-07-05T13:53:35.897Z,25.95
2018-07-05T13:56:01.847Z,25.97
2018-07-05T13:58:27.788Z,25.87
2018-07-05T14:00:53.882Z,25.97
2018-07-05T14:03:19.837Z,25.89
2018-07-05T14:05:45.787Z,25.86
2018-07-05T14:08:11.729Z,25.90
2018-07-05T14:10:37.708Z,25.96
2018-07-05T14:13:03.658Z,25.92
2018-07-05T14:15:29.599Z,26.01
2018-07-05T14:17:55.569Z,25.96
2018-07-05T14:20:21.527Z,26.01
2018-07-05T14:22:47.465Z,25.98
2018-07-05T14:25:13.422Z,26.05
2018-07-05T14:27:39.473Z,26.02
2018-07-05T14:30:05.418Z,25.96
2018-07-05T14:32:31.399Z,26.12
2018-07-05T14:34:57.342Z,26.08
2018-07-05T14:37:23.290Z,26.15
2018-07-05T14:39:49.216Z,26.09
2018-07-05T14:42:15.184Z,26.11
2018-07-05T14:44:41.161Z,26.13
2018-07-05T14:47:07.144Z,26.00
2018-07-05T14:49:33.104Z,26.13
2018-07-05T14:51:59.160Z,26.01
2018-07-05T14:54:25.112Z,26.03
2018-07-05T14:56:51.055Z,25.98
2018-07-05T14:59:16.997Z,25.98
2018-07-05T15:01:43.170Z,25.88
2018-07-05T15:04:09.146Z,25.89
2018-07-05T15:06:35.108Z,25.97
2018-07-05T15:09:01.100Z,25.97
2018-07-05T15:11:27.092Z,25.91
2018-07-05T15:13:53.075Z,25.89
2018-07-05T15:16:19.037Z,25.90
2018-07-05T15:18:45.002Z,25.85
2018-07-05T15:21:10.963Z,25.81
2018-07-05T15:23:36.960Z,25.86
2018-07-05T15:26:02.925Z,25.89
2018-07-05T15:28:28.895Z,25.90
2018-07-05T15:30:54.943Z,25.91
2018-07-05T15:33:20.907Z,25.90
2018-07-05T15:35:46.859Z,25.89
2018-07-05T15:38:12.852Z,25.90
2018-07-05T15:40:38.845Z,26.00
2018-07-05T15:43:04.841Z,25.94
2018-07-05T15:45:30.801Z,26.00
2018-07-05T15:47:56.745Z,25.95
2018-07-05T15:50:22.692Z,25.90
2018-07-05T15:52:48.677Z,25.89
2018-07-05T15:55:14.808Z,25.87
2018-07-05T15:57:40.762Z,25.88
2018-07-05T16:00:06.701Z,25.89
2018-07-05T16:02:32.683Z,26.31
2018-07-05T16:04:58.678Z,26.08
2018-07-05T16:07:24.622Z,26.01
2018-07-05T16:09:50.644Z,26.02
2018-07-05T16:12:16.628Z,26.00
2018-07-05T16:14:42.565Z,25.97
2018-07-05T16:17:08.537Z,26.07
2018-07-05T16:19:34.500Z,26.03
2018-07-05T16:22:00.462Z,26.07
2018-07-05T16:24:26.423Z,26.11
2018-07-05T16:26:52.376Z,26.18
2018-07-05T16:29:18.413Z,26.06
2018-07-05T16:31:44.365Z,26.05
2018-07-05T16:34:10.342Z,26.13
2018-07-05T16:36:36.278Z,26.34
2018-07-05T16:39:02.242Z,26.58
2018-07-05T16:41:28.317Z,26.57
2018-07-05T16:43:54.271Z,26.24
2018-07-05T16:46:20.214Z,26.09
2018-07-05T16:48:46.149Z,26.50
2018-07-05T16:51:12.096Z,26.38
2018-07-05T16:53:38.111Z,26.28
2018-07-05T16:56:04.076Z,26.23
2018-07-05T16:58:30.031Z,26.29
2018-07-05T17:00:55.980Z,26.29
2018-07-05T17:03:22.023Z,26.27
2018-07-05T17:05:47.971Z,26.17
2018-07-05T17:08:14.202Z,26.23
2018-07-05T17:10:40.181Z,26.30
2018-07-05T17:13:06.176Z,26.20
2018-07-05T17:15:32.171Z,26.32
2018-07-05T17:17:58.137Z,26.20
2018-07-05T17:20:24.103Z,26.40
2018-07-05T17:22:50.082Z,26.46
2018-07-05T17:25:16.048Z,26.40
2018-07-05T17:27:42.082Z,26.43
2018-07-05T17:30:08.128Z,26.37
2018-07-05T17:32:34.129Z,26.33
2018-07-05T17:35:00.113Z,26.42
2018-07-05T17:37:26.070Z,26.40
2018-07-05T17:39:52.019Z,26.35
2018-07-05T17:42:17.957Z,26.40
2018-07-05T17:44:43.905Z,26.26
2018-07-05T17:47:09.880Z,26.33
2018-07-05T17:49:35.842Z,26.35
2018-07-05T17:52:01.790Z,26.25
2018-07-05T17:54:27.819Z,26.29
2018-07-05T17:56:53.798Z,26.28
2018-07-05T17:59:19.810Z,26.29
2018-07-05T18:01:45.999Z,26.31
2018-07-05T18:04:12.055Z,26.30
2018-07-05T18:06:38.031Z,26.31
2018-07-05T18:09:04.048Z,26.35
2018-07-05T18:11:30.110Z,26.38
2018-07-05T18:13:56.162Z,26.40
2018-07-05T18:16:22.329Z,26.40
2018-07-05T18:18:48.396Z,26.41
2018-07-05T18:21:14.378Z,26.42
2018-07-05T18:23:40.433Z,26.45
2018-07-05T18:26:06.412Z,26.46
2018-07-05T18:28:32.364Z,26.46
2018-07-05T18:30:58.352Z,26.50
2018-07-05T18:33:24.315Z,26.48
2018-07-05T18:35:50.282Z,26.55
2018-07-05T18:38:16.253Z,26.64
2018-07-05T18:40:42.277Z,26.60
2018-07-05T18:43:08.224Z,26.61
2018-07-05T18:45:34.194Z,26.68
2018-07-05T18:48:00.256Z,26.63
2018-07-05T18:50:26.237Z,26.68
2018-07-05T18:52:52.268Z,26.53
2018-07-05T18:55:18.194Z,26.47
2018-07-05T18:57:44.232Z,26.46
2018-07-05T19:00:10.186Z,26.43
2018-07-05T19:02:36.171Z,26.42
2018-07-05T19:05:02.137Z,26.39
2018-07-05T19:07:28.126Z,26.38
2018-07-05T19:09:54.088Z,26.35
2018-07-05T19:12:20.059Z,26.39
2018-07-05T19:14:46.115Z,26.43
2018-07-05T19:17:12.069Z,26.48
2018-07-05T19:19:37.999Z,26.46
2018-07-05T19:22:03.943Z,26.52
2018-07-05T19:24:29.895Z,26.69
2018-07-05T19:26:55.892Z,26.59
2018-07-05T19:29:21.856Z,26.68
2018-07-05T19:31:47.842Z,26.68
2018-07-05T19:34:13.839Z,26.58
2018-07-05T19:36:39.857Z,26.59
2018-07-05T19:39:05.800Z,26.65
2018-07-05T19:41:31.747Z,26.57
2018-07-05T19:43:57.726Z,26.52
2018-07-05T19:46:23.785Z,26.49
2018-07-05T19:48:49.817Z,26.53
2018-07-05T19:51:15.850Z,26.53
2018-07-05T19:53:41.856Z,26.51
2018-07-05T19:56:07.813Z,26.52
2018-07-05T19:58:33.760Z,26.58
2018-07-05T20:00:59.746Z,26.65
2018-07-05T20:03:25.694Z,26.50
2018-07-05T20:05:56.405Z,26.08
2018-07-05T20:10:55.008Z,25.79
2018-07-05T20:13:21.075Z,25.74
2018-07-05T20:15:47.011Z,25.81
2018-07-05T20:18:12.991Z,25.93
2018-07-05T20:20:39.995Z,25.80
2018-07-05T20:23:05.966Z,25.55
2018-07-05T20:25:32.060Z,25.19
2018-07-05T20:27:58.185Z,25.45
2018-07-05T20:30:24.058Z,25.59
2018-07-05T20:32:50.015Z,25.57
2018-07-05T20:35:16.043Z,25.64
2018-07-05T20:37:42.044Z,25.51
2018-07-05T20:40:08.052Z,25.61
2018-07-05T20:42:34.066Z,25.29
2018-07-05T20:45:00.056Z,25.25
2018-07-05T20:47:26.056Z,25.49
2018-07-05T20:49:52.026Z,25.58
2018-07-05T20:52:17.999Z,25.27
2018-07-05T20:54:43.976Z,25.26
2018-07-05T20:57:09.969Z,25.13
2018-07-05T20:59:35.931Z,25.21
2018-07-05T21:02:02.299Z,25.15
2018-07-05T21:04:28.260Z,25.04
2018-07-05T21:06:54.298Z,25.23
2018-07-05T21:09:20.149Z,25.15
2018-07-05T21:11:46.092Z,25.18
2018-07-05T21:14:12.065Z,24.68
2018-07-05T21:16:38.033Z,24.56
2018-07-05T21:19:04.042Z,24.79
2018-07-05T21:21:29.997Z,24.64
2018-07-05T21:23:55.979Z,24.68
2018-07-05T21:26:21.921Z,24.53
2018-07-05T21:28:47.892Z,24.40
2018-07-05T21:31:13.880Z,24.49
2018-07-05T21:33:39.840Z,24.31
2018-07-05T21:36:05.793Z,24.61
2018-07-05T21:38:31.757Z,24.34
2018-07-05T21:40:57.743Z,24.19
2018-07-05T21:43:23.713Z,24.32
2018-07-05T21:45:49.661Z,24.49
2018-07-05T21:48:15.624Z,24.48
2018-07-05T21:50:41.586Z,24.31
2018-07-05T21:53:07.553Z,24.31
2018-07-05T21:55:33.515Z,24.29
2018-07-05T21:57:59.501Z,24.47
2018-07-05T22:00:25.453Z,24.49
2018-07-05T22:02:51.436Z,24.32
2018-07-05T22:05:17.388Z,24.27
2018-07-05T22:07:43.344Z,24.61
2018-07-05T22:10:09.281Z,24.17
2018-07-05T22:12:35.246Z,24.12
2018-07-05T22:15:01.215Z,24.36
2018-07-05T22:17:27.172Z,24.37
2018-07-05T22:19:53.104Z,24.18
2018-07-05T22:22:19.033Z,24.49
2018-07-05T22:24:44.993Z,23.97
2018-07-05T22:27:10.943Z,23.97
2018-07-05T22:29:36.894Z,23.92
2018-07-05T22:32:02.833Z,23.59
2018-07-05T22:34:28.791Z,23.29
2018-07-05T22:36:54.747Z,23.30
2018-07-05T22:39:20.733Z,23.25
2018-07-05T22:41:46.652Z,23.21
2018-07-05T22:44:12.573Z,23.47
2018-07-05T22:46:38.518Z,23.30
2018-07-05T22:49:04.471Z,23.07
2018-07-05T22:51:30.421Z,23.07
2018-07-05T22:53:56.389Z,22.99
2018-07-05T22:56:22.342Z,23.26
2018-07-05T22:58:48.295Z,23.50
2018-07-05T23:01:14.232Z,23.37
2018-07-05T23:03:40.207Z,23.37
2018-07-05T23:06:06.191Z,23.26
2018-07-05T23:08:32.207Z,23.25
2018-07-05T23:10:58.129Z,23.35
2018-07-05T23:13:24.053Z,23.50
2018-07-05T23:15:50.014Z,23.71
2018-07-05T23:18:15.965Z,23.83
2018-07-05T23:20:41.894Z,23.61
2018-07-05T23:23:07.833Z,23.71
2018-07-05T23:25:33.789Z,23.82
2018-07-05T23:27:59.776Z,23.74
2018-07-05T23:30:25.733Z,23.95
2018-07-05T23:32:51.679Z,23.93
2018-07-05T23:35:17.620Z,23.74
2018-07-05T23:37:43.564Z,23.83
2018-07-05T23:40:09.539Z,24.03
2018-07-05T23:42:35.480Z,24.08
2018-07-05T23:45:01.460Z,23.71
2018-07-05T23:47:27.404Z,24.22
2018-07-05T23:49:53.371Z,24.23
2018-07-05T23:52:19.323Z,24.02
2018-07-05T23:54:45.314Z,23.91
2018-07-05T23:57:11.272Z,23.96
2018-07-05T23:59:37.220Z,24.08
